sensor_id;sensor_type;location;lat;lon;timestamp;P1;durP1;ratioP1;P2;durP2;ratioP2
48667;SDS011;34453;52.198;5.004;2023-05-10T00:02:22;47.50;;;27.45;;
48667;SDS011;34453;52.198;5.004;2023-05-10T00:04:48;46.30;;;28.10;;
48667;SDS011;34453;52.198;5.004;2023-05-10T00:07:13;50.13;;;29.02;;
48667;SDS011;34453;52.198;5.004;2023-05-10T00:09:39;51.88;;;29.58;;
48667;SDS011;34453;52.198;5.004;2023-05-10T00:12:05;53.97;;;30.35;;
48667;SDS011;34453;52.198;5.004;2023-05-10T00:14:30;53.25;;;29.25;;
48667;SDS011;34453;52.198;5.004;2023-05-10T00:16:56;54.15;;;28.38;;
48667;SDS011;34453;52.198;5.004;2023-05-10T00:19:21;57.10;;;29.25;;
48667;SDS011;34453;52.198;5.004;2023-05-10T00:21:47;48.50;;;28.25;;
48667;SDS011;34453;52.198;5.004;2023-05-10T00:24:12;52.85;;;28.60;;
48667;SDS011;34453;52.198;5.004;2023-05-10T00:26:38;53.58;;;29.35;;
48667;SDS011;34453;52.198;5.004;2023-05-10T00:29:03;53.55;;;27.92;;
48667;SDS011;34453;52.198;5.004;2023-05-10T00:31:28;58.30;;;30.23;;
48667;SDS011;34453;52.198;5.004;2023-05-10T00:33:54;58.33;;;29.25;;
48667;SDS011;34453;52.198;5.004;2023-05-10T00:36:19;57.33;;;27.67;;
48667;SDS011;34453;52.198;5.004;2023-05-10T00:38:46;59.67;;;27.60;;
48667;SDS011;34453;52.198;5.004;2023-05-10T00:41:11;56.65;;;29.98;;
48667;SDS011;34453;52.198;5.004;2023-05-10T00:43:37;53.60;;;29.10;;
48667;SDS011;34453;52.198;5.004;2023-05-10T00:46:02;56.53;;;29.30;;
48667;SDS011;34453;52.198;5.004;2023-05-10T00:48:29;58.42;;;30.35;;
48667;SDS011;34453;52.198;5.004;2023-05-10T00:50:54;51.83;;;30.20;;
48667;SDS011;34453;52.198;5.004;2023-05-10T00:53:20;51.00;;;30.30;;
48667;SDS011;34453;52.198;5.004;2023-05-10T00:55:46;60.15;;;31.48;;
48667;SDS011;34453;52.198;5.004;2023-05-10T00:58:12;55.00;;;30.85;;
48667;SDS011;34453;52.198;5.004;2023-05-10T01:00:37;57.10;;;33.30;;
48667;SDS011;34453;52.198;5.004;2023-05-10T01:03:06;63.55;;;32.28;;
48667;SDS011;34453;52.198;5.004;2023-05-10T01:05:32;56.33;;;33.63;;
48667;SDS011;34453;52.198;5.004;2023-05-10T01:07:57;56.17;;;32.85;;
48667;SDS011;34453;52.198;5.004;2023-05-10T01:10:23;58.70;;;33.45;;
48667;SDS011;34453;52.198;5.004;2023-05-10T01:12:49;53.65;;;32.38;;
48667;SDS011;34453;52.198;5.004;2023-05-10T01:15:14;61.70;;;32.35;;
48667;SDS011;34453;52.198;5.004;2023-05-10T01:17:42;58.88;;;32.25;;
48667;SDS011;34453;52.198;5.004;2023-05-10T01:20:09;59.67;;;32.90;;
48667;SDS011;34453;52.198;5.004;2023-05-10T01:33:54;62.60;;;33.25;;
48667;SDS011;34453;52.198;5.004;2023-05-10T01:36:41;63.70;;;31.90;;
48667;SDS011;34453;52.198;5.004;2023-05-10T01:42:05;60.30;;;31.02;;
48667;SDS011;34453;52.198;5.004;2023-05-10T01:50:22;57.47;;;31.48;;
48667;SDS011;34453;52.198;5.004;2023-05-10T01:52:51;67.70;;;35.40;;
48667;SDS011;34453;52.198;5.004;2023-05-10T01:55:20;68.10;;;33.33;;
48667;SDS011;34453;52.198;5.004;2023-05-10T01:57:48;66.13;;;34.10;;
48667;SDS011;34453;52.198;5.004;2023-05-10T02:00:19;71.95;;;35.28;;
48667;SDS011;34453;52.198;5.004;2023-05-10T02:02:46;71.50;;;37.17;;
48667;SDS011;34453;52.198;5.004;2023-05-10T02:05:14;76.35;;;37.08;;
48667;SDS011;34453;52.198;5.004;2023-05-10T02:07:41;82.60;;;37.00;;
48667;SDS011;34453;52.198;5.004;2023-05-10T02:10:08;88.32;;;40.55;;
48667;SDS011;34453;52.198;5.004;2023-05-10T02:12:36;84.13;;;39.17;;
48667;SDS011;34453;52.198;5.004;2023-05-10T02:15:04;81.95;;;39.17;;
48667;SDS011;34453;52.198;5.004;2023-05-10T02:17:32;85.72;;;39.15;;
48667;SDS011;34453;52.198;5.004;2023-05-10T02:19:59;81.75;;;38.17;;
48667;SDS011;34453;52.198;5.004;2023-05-10T02:22:27;77.20;;;37.30;;
48667;SDS011;34453;52.198;5.004;2023-05-10T02:24:56;76.15;;;37.85;;
48667;SDS011;34453;52.198;5.004;2023-05-10T02:27:23;67.95;;;33.80;;
48667;SDS011;34453;52.198;5.004;2023-05-10T02:29:50;70.45;;;36.95;;
48667;SDS011;34453;52.198;5.004;2023-05-10T02:32:17;81.22;;;38.20;;
48667;SDS011;34453;52.198;5.004;2023-05-10T02:34:43;97.38;;;41.70;;
48667;SDS011;34453;52.198;5.004;2023-05-10T02:37:11;94.38;;;40.65;;
48667;SDS011;34453;52.198;5.004;2023-05-10T02:39:39;86.20;;;38.50;;
48667;SDS011;34453;52.198;5.004;2023-05-10T02:42:09;90.28;;;40.13;;
48667;SDS011;34453;52.198;5.004;2023-05-10T02:47:06;100.60;;;40.40;;
48667;SDS011;34453;52.198;5.004;2023-05-10T02:49:32;96.18;;;36.08;;
48667;SDS011;34453;52.198;5.004;2023-05-10T02:51:59;106.85;;;37.10;;
48667;SDS011;34453;52.198;5.004;2023-05-10T02:54:30;98.35;;;36.05;;
48667;SDS011;34453;52.198;5.004;2023-05-10T02:56:59;106.70;;;36.38;;
48667;SDS011;34453;52.198;5.004;2023-05-10T02:59:27;104.45;;;35.03;;
48667;SDS011;34453;52.198;5.004;2023-05-10T03:01:53;108.50;;;32.08;;
48667;SDS011;34453;52.198;5.004;2023-05-10T03:04:18;106.63;;;34.58;;
48667;SDS011;34453;52.198;5.004;2023-05-10T03:06:44;131.63;;;36.00;;
48667;SDS011;34453;52.198;5.004;2023-05-10T03:09:10;108.43;;;34.13;;
48667;SDS011;34453;52.198;5.004;2023-05-10T03:17:19;115.75;;;36.03;;
48667;SDS011;34453;52.198;5.004;2023-05-10T03:19:55;109.15;;;37.38;;
48667;SDS011;34453;52.198;5.004;2023-05-10T03:22:32;105.50;;;37.25;;
48667;SDS011;34453;52.198;5.004;2023-05-10T03:25:04;111.68;;;39.00;;
48667;SDS011;34453;52.198;5.004;2023-05-10T03:27:31;110.75;;;39.40;;
48667;SDS011;34453;52.198;5.004;2023-05-10T03:29:57;119.55;;;42.00;;
48667;SDS011;34453;52.198;5.004;2023-05-10T03:32:23;117.00;;;43.33;;
48667;SDS011;34453;52.198;5.004;2023-05-10T03:34:48;123.00;;;45.03;;
48667;SDS011;34453;52.198;5.004;2023-05-10T03:37:14;120.55;;;44.28;;
48667;SDS011;34453;52.198;5.004;2023-05-10T03:39:39;123.45;;;43.90;;
48667;SDS011;34453;52.198;5.004;2023-05-10T03:42:04;119.22;;;42.58;;
48667;SDS011;34453;52.198;5.004;2023-05-10T03:44:30;127.00;;;46.67;;
48667;SDS011;34453;52.198;5.004;2023-05-10T03:46:58;133.23;;;43.53;;
48667;SDS011;34453;52.198;5.004;2023-05-10T03:49:23;130.73;;;43.60;;
48667;SDS011;34453;52.198;5.004;2023-05-10T03:51:48;135.52;;;44.85;;
48667;SDS011;34453;52.198;5.004;2023-05-10T03:54:14;134.27;;;40.95;;
48667;SDS011;34453;52.198;5.004;2023-05-10T03:56:39;134.55;;;42.85;;
48667;SDS011;34453;52.198;5.004;2023-05-10T03:59:05;140.05;;;42.08;;
48667;SDS011;34453;52.198;5.004;2023-05-10T04:01:32;153.50;;;43.40;;
48667;SDS011;34453;52.198;5.004;2023-05-10T04:03:59;156.77;;;42.92;;
48667;SDS011;34453;52.198;5.004;2023-05-10T04:06:24;151.18;;;43.65;;
48667;SDS011;34453;52.198;5.004;2023-05-10T04:08:50;140.07;;;39.80;;
48667;SDS011;34453;52.198;5.004;2023-05-10T04:11:15;134.23;;;39.25;;
48667;SDS011;34453;52.198;5.004;2023-05-10T04:13:40;122.30;;;38.53;;
48667;SDS011;34453;52.198;5.004;2023-05-10T04:16:06;119.63;;;38.22;;
48667;SDS011;34453;52.198;5.004;2023-05-10T04:18:31;125.03;;;39.33;;
48667;SDS011;34453;52.198;5.004;2023-05-10T04:20:57;125.47;;;40.55;;
48667;SDS011;34453;52.198;5.004;2023-05-10T04:23:22;127.45;;;41.30;;
48667;SDS011;34453;52.198;5.004;2023-05-10T04:25:48;124.43;;;41.55;;
48667;SDS011;34453;52.198;5.004;2023-05-10T04:28:13;121.47;;;40.67;;
48667;SDS011;34453;52.198;5.004;2023-05-10T04:30:39;115.30;;;39.88;;
48667;SDS011;34453;52.198;5.004;2023-05-10T04:33:05;120.00;;;41.88;;
48667;SDS011;34453;52.198;5.004;2023-05-10T04:35:30;112.30;;;42.15;;
48667;SDS011;34453;52.198;5.004;2023-05-10T04:37:56;102.10;;;39.78;;
48667;SDS011;34453;52.198;5.004;2023-05-10T04:40:21;100.70;;;40.58;;
48667;SDS011;34453;52.198;5.004;2023-05-10T04:42:47;106.13;;;41.38;;
48667;SDS011;34453;52.198;5.004;2023-05-10T04:45:12;82.75;;;37.60;;
48667;SDS011;34453;52.198;5.004;2023-05-10T04:47:39;75.05;;;38.65;;
48667;SDS011;34453;52.198;5.004;2023-05-10T04:50:05;72.97;;;37.45;;
48667;SDS011;34453;52.198;5.004;2023-05-10T04:52:31;73.18;;;36.67;;
48667;SDS011;34453;52.198;5.004;2023-05-10T04:54:56;70.68;;;35.60;;
48667;SDS011;34453;52.198;5.004;2023-05-10T04:57:22;65.05;;;32.65;;
48667;SDS011;34453;52.198;5.004;2023-05-10T04:59:47;47.38;;;24.77;;
48667;SDS011;34453;52.198;5.004;2023-05-10T05:02:13;48.42;;;21.95;;
48667;SDS011;34453;52.198;5.004;2023-05-10T05:04:38;42.38;;;20.90;;
48667;SDS011;34453;52.198;5.004;2023-05-10T05:07:04;33.97;;;18.20;;
48667;SDS011;34453;52.198;5.004;2023-05-10T05:09:29;40.28;;;19.17;;
48667;SDS011;34453;52.198;5.004;2023-05-10T05:11:56;43.50;;;19.55;;
48667;SDS011;34453;52.198;5.004;2023-05-10T05:14:22;44.78;;;20.13;;
48667;SDS011;34453;52.198;5.004;2023-05-10T05:16:50;45.47;;;19.05;;
48667;SDS011;34453;52.198;5.004;2023-05-10T05:19:16;32.38;;;18.80;;
48667;SDS011;34453;52.198;5.004;2023-05-10T05:21:41;41.28;;;22.80;;
48667;SDS011;34453;52.198;5.004;2023-05-10T05:24:07;40.72;;;20.55;;
48667;SDS011;34453;52.198;5.004;2023-05-10T05:26:32;39.08;;;19.13;;
48667;SDS011;34453;52.198;5.004;2023-05-10T05:28:58;39.97;;;18.63;;
48667;SDS011;34453;52.198;5.004;2023-05-10T05:31:23;32.30;;;18.70;;
48667;SDS011;34453;52.198;5.004;2023-05-10T05:33:49;28.85;;;16.23;;
48667;SDS011;34453;52.198;5.004;2023-05-10T05:36:14;29.02;;;16.98;;
48667;SDS011;34453;52.198;5.004;2023-05-10T05:38:40;26.23;;;16.80;;
48667;SDS011;34453;52.198;5.004;2023-05-10T05:41:05;32.95;;;17.23;;
48667;SDS011;34453;52.198;5.004;2023-05-10T05:43:30;29.27;;;16.55;;
48667;SDS011;34453;52.198;5.004;2023-05-10T05:45:56;29.58;;;17.00;;
48667;SDS011;34453;52.198;5.004;2023-05-10T05:48:23;36.85;;;18.38;;
48667;SDS011;34453;52.198;5.004;2023-05-10T05:50:48;27.40;;;16.75;;
48667;SDS011;34453;52.198;5.004;2023-05-10T05:53:14;30.02;;;17.17;;
48667;SDS011;34453;52.198;5.004;2023-05-10T05:55:39;32.45;;;17.60;;
48667;SDS011;34453;52.198;5.004;2023-05-10T05:58:05;25.95;;;17.45;;
48667;SDS011;34453;52.198;5.004;2023-05-10T06:00:30;26.58;;;15.40;;
48667;SDS011;34453;52.198;5.004;2023-05-10T06:02:56;35.20;;;17.95;;
48667;SDS011;34453;52.198;5.004;2023-05-10T06:05:22;27.23;;;16.35;;
48667;SDS011;34453;52.198;5.004;2023-05-10T06:07:47;27.27;;;15.90;;
48667;SDS011;34453;52.198;5.004;2023-05-10T06:10:12;25.58;;;15.85;;
48667;SDS011;34453;52.198;5.004;2023-05-10T06:12:38;31.35;;;16.63;;
48667;SDS011;34453;52.198;5.004;2023-05-10T06:15:03;24.15;;;15.88;;
48667;SDS011;34453;52.198;5.004;2023-05-10T06:17:30;21.17;;;14.98;;
48667;SDS011;34453;52.198;5.004;2023-05-10T06:19:55;20.25;;;14.60;;
48667;SDS011;34453;52.198;5.004;2023-05-10T06:22:21;20.25;;;13.88;;
48667;SDS011;34453;52.198;5.004;2023-05-10T06:24:49;24.77;;;14.95;;
48667;SDS011;34453;52.198;5.004;2023-05-10T06:27:15;26.00;;;15.63;;
48667;SDS011;34453;52.198;5.004;2023-05-10T06:29:40;22.75;;;13.73;;
48667;SDS011;34453;52.198;5.004;2023-05-10T06:32:06;23.55;;;14.90;;
48667;SDS011;34453;52.198;5.004;2023-05-10T06:34:31;22.83;;;14.88;;
48667;SDS011;34453;52.198;5.004;2023-05-10T06:36:57;22.20;;;14.77;;
48667;SDS011;34453;52.198;5.004;2023-05-10T06:39:22;25.67;;;14.35;;
48667;SDS011;34453;52.198;5.004;2023-05-10T06:41:48;21.73;;;14.65;;
48667;SDS011;34453;52.198;5.004;2023-05-10T06:44:13;22.10;;;14.95;;
48667;SDS011;34453;52.198;5.004;2023-05-10T06:46:39;20.48;;;14.98;;
48667;SDS011;34453;52.198;5.004;2023-05-10T06:49:04;24.88;;;15.32;;
48667;SDS011;34453;52.198;5.004;2023-05-10T06:51:30;22.00;;;14.55;;
48667;SDS011;34453;52.198;5.004;2023-05-10T06:53:55;22.50;;;14.43;;
48667;SDS011;34453;52.198;5.004;2023-05-10T06:56:21;23.60;;;13.13;;
48667;SDS011;34453;52.198;5.004;2023-05-10T06:58:47;24.90;;;14.13;;
48667;SDS011;34453;52.198;5.004;2023-05-10T07:01:13;25.08;;;14.65;;
48667;SDS011;34453;52.198;5.004;2023-05-10T07:03:38;21.52;;;13.52;;
48667;SDS011;34453;52.198;5.004;2023-05-10T07:06:03;18.63;;;13.30;;
48667;SDS011;34453;52.198;5.004;2023-05-10T07:08:30;19.48;;;12.93;;
48667;SDS011;34453;52.198;5.004;2023-05-10T07:11:00;18.30;;;12.63;;
48667;SDS011;34453;52.198;5.004;2023-05-10T07:13:26;19.80;;;12.82;;
48667;SDS011;34453;52.198;5.004;2023-05-10T07:15:51;22.25;;;13.88;;
48667;SDS011;34453;52.198;5.004;2023-05-10T07:18:17;20.38;;;12.88;;
48667;SDS011;34453;52.198;5.004;2023-05-10T07:20:42;18.52;;;12.32;;
48667;SDS011;34453;52.198;5.004;2023-05-10T07:23:08;28.23;;;13.45;;
48667;SDS011;34453;52.198;5.004;2023-05-10T07:25:33;20.88;;;11.40;;
48667;SDS011;34453;52.198;5.004;2023-05-10T07:27:58;20.75;;;13.32;;
48667;SDS011;34453;52.198;5.004;2023-05-10T07:30:24;21.27;;;12.80;;
48667;SDS011;34453;52.198;5.004;2023-05-10T07:32:49;20.77;;;12.95;;
48667;SDS011;34453;52.198;5.004;2023-05-10T07:35:15;19.95;;;12.82;;
48667;SDS011;34453;52.198;5.004;2023-05-10T07:37:40;21.60;;;13.00;;
48667;SDS011;34453;52.198;5.004;2023-05-10T07:40:06;16.92;;;12.43;;
48667;SDS011;34453;52.198;5.004;2023-05-10T07:42:32;18.67;;;12.80;;
48667;SDS011;34453;52.198;5.004;2023-05-10T07:44:57;24.38;;;12.88;;
48667;SDS011;34453;52.198;5.004;2023-05-10T07:47:23;17.13;;;12.60;;
48667;SDS011;34453;52.198;5.004;2023-05-10T07:49:51;20.85;;;12.85;;
48667;SDS011;34453;52.198;5.004;2023-05-10T07:52:16;18.85;;;12.38;;
48667;SDS011;34453;52.198;5.004;2023-05-10T07:54:42;19.70;;;13.70;;
48667;SDS011;34453;52.198;5.004;2023-05-10T07:57:07;15.90;;;11.27;;
48667;SDS011;34453;52.198;5.004;2023-05-10T07:59:32;24.88;;;13.10;;
48667;SDS011;34453;52.198;5.004;2023-05-10T08:01:58;19.02;;;11.93;;
48667;SDS011;34453;52.198;5.004;2023-05-10T08:04:23;17.08;;;12.30;;
48667;SDS011;34453;52.198;5.004;2023-05-10T08:06:49;13.60;;;11.30;;
48667;SDS011;34453;52.198;5.004;2023-05-10T08:09:15;15.75;;;12.25;;
48667;SDS011;34453;52.198;5.004;2023-05-10T08:11:41;16.02;;;11.60;;
48667;SDS011;34453;52.198;5.004;2023-05-10T08:14:06;18.75;;;11.27;;
48667;SDS011;34453;52.198;5.004;2023-05-10T08:16:32;12.85;;;9.93;;
48667;SDS011;34453;52.198;5.004;2023-05-10T08:18:57;14.73;;;10.32;;
48667;SDS011;34453;52.198;5.004;2023-05-10T08:21:23;10.80;;;9.80;;
48667;SDS011;34453;52.198;5.004;2023-05-10T08:23:48;9.18;;;8.27;;
48667;SDS011;34453;52.198;5.004;2023-05-10T08:26:14;9.80;;;8.57;;
48667;SDS011;34453;52.198;5.004;2023-05-10T08:28:40;8.60;;;7.82;;
48667;SDS011;34453;52.198;5.004;2023-05-10T08:31:05;9.85;;;9.00;;
48667;SDS011;34453;52.198;5.004;2023-05-10T08:33:31;9.77;;;8.73;;
48667;SDS011;34453;52.198;5.004;2023-05-10T08:35:56;12.55;;;8.15;;
48667;SDS011;34453;52.198;5.004;2023-05-10T08:38:22;9.25;;;8.18;;
48667;SDS011;34453;52.198;5.004;2023-05-10T08:40:47;9.15;;;7.78;;
48667;SDS011;34453;52.198;5.004;2023-05-10T08:43:14;8.57;;;7.75;;
48667;SDS011;34453;52.198;5.004;2023-05-10T08:45:43;9.98;;;7.30;;
48667;SDS011;34453;52.198;5.004;2023-05-10T08:50:39;12.07;;;7.00;;
48667;SDS011;34453;52.198;5.004;2023-05-10T08:53:06;9.02;;;7.20;;
48667;SDS011;34453;52.198;5.004;2023-05-10T08:55:35;13.77;;;6.88;;
48667;SDS011;34453;52.198;5.004;2023-05-10T08:58:05;6.93;;;6.25;;
48667;SDS011;34453;52.198;5.004;2023-05-10T09:00:31;7.70;;;6.80;;
48667;SDS011;34453;52.198;5.004;2023-05-10T09:02:57;5.85;;;5.40;;
48667;SDS011;34453;52.198;5.004;2023-05-10T09:05:23;6.38;;;5.78;;
48667;SDS011;34453;52.198;5.004;2023-05-10T09:07:49;7.28;;;5.88;;
48667;SDS011;34453;52.198;5.004;2023-05-10T09:10:14;6.00;;;5.45;;
48667;SDS011;34453;52.198;5.004;2023-05-10T09:12:40;6.70;;;5.68;;
48667;SDS011;34453;52.198;5.004;2023-05-10T09:15:07;5.78;;;5.25;;
48667;SDS011;34453;52.198;5.004;2023-05-10T09:17:34;9.90;;;5.28;;
48667;SDS011;34453;52.198;5.004;2023-05-10T09:20:00;6.60;;;5.88;;
48667;SDS011;34453;52.198;5.004;2023-05-10T09:22:29;6.35;;;4.95;;
48667;SDS011;34453;52.198;5.004;2023-05-10T09:27:31;8.35;;;5.18;;
48667;SDS011;34453;52.198;5.004;2023-05-10T09:29:57;6.15;;;5.65;;
48667;SDS011;34453;52.198;5.004;2023-05-10T09:32:35;7.60;;;6.90;;
48667;SDS011;34453;52.198;5.004;2023-05-10T09:37:41;6.65;;;6.20;;
48667;SDS011;34453;52.198;5.004;2023-05-10T09:40:11;6.75;;;6.18;;
48667;SDS011;34453;52.198;5.004;2023-05-10T09:42:38;6.70;;;6.05;;
48667;SDS011;34453;52.198;5.004;2023-05-10T09:45:04;8.88;;;6.60;;
48667;SDS011;34453;52.198;5.004;2023-05-10T09:47:33;8.25;;;6.65;;
48667;SDS011;34453;52.198;5.004;2023-05-10T09:50:01;7.72;;;6.88;;
48667;SDS011;34453;52.198;5.004;2023-05-10T09:52:30;7.18;;;6.55;;
48667;SDS011;34453;52.198;5.004;2023-05-10T09:55:10;13.50;;;6.70;;
48667;SDS011;34453;52.198;5.004;2023-05-10T09:57:35;6.95;;;6.25;;
48667;SDS011;34453;52.198;5.004;2023-05-10T10:00:01;9.10;;;6.85;;
48667;SDS011;34453;52.198;5.004;2023-05-10T10:02:29;9.68;;;5.50;;
48667;SDS011;34453;52.198;5.004;2023-05-10T10:04:55;7.05;;;6.45;;
48667;SDS011;34453;52.198;5.004;2023-05-10T10:07:24;9.48;;;6.15;;
48667;SDS011;34453;52.198;5.004;2023-05-10T10:09:50;9.05;;;6.50;;
48667;SDS011;34453;52.198;5.004;2023-05-10T10:12:16;6.35;;;5.75;;
48667;SDS011;34453;52.198;5.004;2023-05-10T10:14:42;6.63;;;6.07;;
48667;SDS011;34453;52.198;5.004;2023-05-10T10:17:08;11.48;;;6.50;;
48667;SDS011;34453;52.198;5.004;2023-05-10T10:19:34;8.52;;;6.13;;
48667;SDS011;34453;52.198;5.004;2023-05-10T10:22:00;7.80;;;5.70;;
48667;SDS011;34453;52.198;5.004;2023-05-10T10:24:26;7.20;;;6.32;;
48667;SDS011;34453;52.198;5.004;2023-05-10T10:26:52;10.68;;;6.22;;
48667;SDS011;34453;52.198;5.004;2023-05-10T10:29:25;5.85;;;5.45;;
48667;SDS011;34453;52.198;5.004;2023-05-10T10:32:10;6.03;;;4.57;;
48667;SDS011;34453;52.198;5.004;2023-05-10T10:34:47;6.68;;;5.35;;
48667;SDS011;34453;52.198;5.004;2023-05-10T10:37:13;5.00;;;4.57;;
48667;SDS011;34453;52.198;5.004;2023-05-10T10:39:38;4.80;;;4.40;;
48667;SDS011;34453;52.198;5.004;2023-05-10T10:42:04;7.03;;;5.25;;
48667;SDS011;34453;52.198;5.004;2023-05-10T10:54:52;10.00;;;5.43;;
48667;SDS011;34453;52.198;5.004;2023-05-10T10:57:18;9.13;;;5.97;;
48667;SDS011;34453;52.198;5.004;2023-05-10T10:59:46;11.10;;;6.43;;
48667;SDS011;34453;52.198;5.004;2023-05-10T11:07:54;8.70;;;5.38;;
48667;SDS011;34453;52.198;5.004;2023-05-10T11:10:24;7.40;;;5.35;;
48667;SDS011;34453;52.198;5.004;2023-05-10T11:12:59;6.07;;;5.22;;
48667;SDS011;34453;52.198;5.004;2023-05-10T11:15:29;10.02;;;6.30;;
48667;SDS011;34453;52.198;5.004;2023-05-10T11:17:56;9.60;;;5.57;;
48667;SDS011;34453;52.198;5.004;2023-05-10T11:20:21;5.47;;;4.95;;
48667;SDS011;34453;52.198;5.004;2023-05-10T11:22:53;6.25;;;5.65;;
48667;SDS011;34453;52.198;5.004;2023-05-10T11:25:19;6.80;;;5.50;;
48667;SDS011;34453;52.198;5.004;2023-05-10T11:27:46;8.55;;;5.88;;
48667;SDS011;34453;52.198;5.004;2023-05-10T11:30:13;6.30;;;5.22;;
48667;SDS011;34453;52.198;5.004;2023-05-10T11:32:39;10.13;;;5.78;;
48667;SDS011;34453;52.198;5.004;2023-05-10T11:35:09;6.35;;;5.07;;
48667;SDS011;34453;52.198;5.004;2023-05-10T11:37:36;7.10;;;5.18;;
48667;SDS011;34453;52.198;5.004;2023-05-10T11:40:02;5.35;;;4.95;;
48667;SDS011;34453;52.198;5.004;2023-05-10T11:42:28;5.60;;;5.18;;
48667;SDS011;34453;52.198;5.004;2023-05-10T11:44:54;5.35;;;4.85;;
48667;SDS011;34453;52.198;5.004;2023-05-10T11:47:20;8.68;;;5.45;;
48667;SDS011;34453;52.198;5.004;2023-05-10T11:49:45;6.00;;;4.75;;
48667;SDS011;34453;52.198;5.004;2023-05-10T11:52:11;7.60;;;4.53;;
48667;SDS011;34453;52.198;5.004;2023-05-10T11:54:37;5.45;;;5.05;;
48667;SDS011;34453;52.198;5.004;2023-05-10T11:57:02;7.93;;;5.15;;
48667;SDS011;34453;52.198;5.004;2023-05-10T11:59:28;7.15;;;6.45;;
48667;SDS011;34453;52.198;5.004;2023-05-10T12:01:54;10.65;;;8.93;;
48667;SDS011;34453;52.198;5.004;2023-05-10T12:04:19;13.77;;;9.85;;
48667;SDS011;34453;52.198;5.004;2023-05-10T12:06:45;18.88;;;10.23;;
48667;SDS011;34453;52.198;5.004;2023-05-10T12:09:11;12.52;;;9.77;;
48667;SDS011;34453;52.198;5.004;2023-05-10T12:11:40;14.82;;;10.38;;
48667;SDS011;34453;52.198;5.004;2023-05-10T12:14:06;12.85;;;10.13;;
48667;SDS011;34453;52.198;5.004;2023-05-10T12:16:31;12.45;;;10.38;;
48667;SDS011;34453;52.198;5.004;2023-05-10T12:18:58;16.33;;;9.93;;
48667;SDS011;34453;52.198;5.004;2023-05-10T12:21:24;16.98;;;11.35;;
48667;SDS011;34453;52.198;5.004;2023-05-10T12:23:52;18.60;;;10.95;;
48667;SDS011;34453;52.198;5.004;2023-05-10T12:26:21;21.55;;;12.75;;
48667;SDS011;34453;52.198;5.004;2023-05-10T12:28:47;16.42;;;11.90;;
48667;SDS011;34453;52.198;5.004;2023-05-10T12:31:13;21.02;;;12.57;;
48667;SDS011;34453;52.198;5.004;2023-05-10T12:33:40;27.67;;;12.93;;
48667;SDS011;34453;52.198;5.004;2023-05-10T12:36:10;24.42;;;13.90;;
48667;SDS011;34453;52.198;5.004;2023-05-10T12:38:37;21.23;;;13.70;;
48667;SDS011;34453;52.198;5.004;2023-05-10T12:41:07;22.50;;;13.75;;
48667;SDS011;34453;52.198;5.004;2023-05-10T12:43:38;23.10;;;14.02;;
48667;SDS011;34453;52.198;5.004;2023-05-10T12:46:11;26.95;;;14.18;;
48667;SDS011;34453;52.198;5.004;2023-05-10T12:48:38;27.30;;;16.13;;
48667;SDS011;34453;52.198;5.004;2023-05-10T12:51:05;25.70;;;14.27;;
48667;SDS011;34453;52.198;5.004;2023-05-10T12:53:34;23.90;;;12.98;;
48667;SDS011;34453;52.198;5.004;2023-05-10T12:56:00;21.27;;;11.70;;
48667;SDS011;34453;52.198;5.004;2023-05-10T12:58:26;21.85;;;11.90;;
48667;SDS011;34453;52.198;5.004;2023-05-10T13:00:51;20.23;;;10.60;;
48667;SDS011;34453;52.198;5.004;2023-05-10T13:03:18;16.95;;;10.57;;
48667;SDS011;34453;52.198;5.004;2023-05-10T13:05:43;16.00;;;9.38;;
48667;SDS011;34453;52.198;5.004;2023-05-10T13:08:09;16.23;;;9.45;;
48667;SDS011;34453;52.198;5.004;2023-05-10T13:10:34;13.45;;;9.60;;
48667;SDS011;34453;52.198;5.004;2023-05-10T13:13:00;18.75;;;9.85;;
48667;SDS011;34453;52.198;5.004;2023-05-10T13:15:26;16.80;;;9.65;;
48667;SDS011;34453;52.198;5.004;2023-05-10T13:17:52;16.55;;;9.13;;
48667;SDS011;34453;52.198;5.004;2023-05-10T13:20:19;17.13;;;10.10;;
48667;SDS011;34453;52.198;5.004;2023-05-10T13:22:44;18.13;;;9.20;;
48667;SDS011;34453;52.198;5.004;2023-05-10T13:25:10;17.08;;;9.20;;
48667;SDS011;34453;52.198;5.004;2023-05-10T13:27:36;16.38;;;10.25;;
48667;SDS011;34453;52.198;5.004;2023-05-10T13:30:02;19.55;;;9.60;;
48667;SDS011;34453;52.198;5.004;2023-05-10T13:32:29;18.17;;;10.32;;
48667;SDS011;34453;52.198;5.004;2023-05-10T13:34:55;16.23;;;7.78;;
48667;SDS011;34453;52.198;5.004;2023-05-10T13:37:20;12.50;;;7.90;;
48667;SDS011;34453;52.198;5.004;2023-05-10T13:39:46;11.07;;;8.43;;
48667;SDS011;34453;52.198;5.004;2023-05-10T13:42:12;13.30;;;7.85;;
48667;SDS011;34453;52.198;5.004;2023-05-10T13:44:38;13.15;;;8.82;;
48667;SDS011;34453;52.198;5.004;2023-05-10T13:47:04;14.40;;;9.35;;
48667;SDS011;34453;52.198;5.004;2023-05-10T13:49:30;15.75;;;9.00;;
48667;SDS011;34453;52.198;5.004;2023-05-10T13:51:56;13.40;;;8.65;;
48667;SDS011;34453;52.198;5.004;2023-05-10T13:54:21;8.27;;;7.30;;
48667;SDS011;34453;52.198;5.004;2023-05-10T13:56:48;13.32;;;7.20;;
48667;SDS011;34453;52.198;5.004;2023-05-10T13:59:14;14.05;;;7.25;;
48667;SDS011;34453;52.198;5.004;2023-05-10T14:01:42;9.25;;;5.63;;
48667;SDS011;34453;52.198;5.004;2023-05-10T14:04:08;11.75;;;7.22;;
48667;SDS011;34453;52.198;5.004;2023-05-10T14:06:38;9.18;;;6.60;;
48667;SDS011;34453;52.198;5.004;2023-05-10T14:09:04;14.85;;;8.32;;
48667;SDS011;34453;52.198;5.004;2023-05-10T14:11:30;8.85;;;7.35;;
48667;SDS011;34453;52.198;5.004;2023-05-10T14:13:55;14.70;;;8.57;;
48667;SDS011;34453;52.198;5.004;2023-05-10T14:16:21;12.65;;;8.05;;
48667;SDS011;34453;52.198;5.004;2023-05-10T14:18:47;13.48;;;8.13;;
48667;SDS011;34453;52.198;5.004;2023-05-10T14:21:12;14.43;;;9.52;;
48667;SDS011;34453;52.198;5.004;2023-05-10T14:23:40;13.20;;;8.55;;
48667;SDS011;34453;52.198;5.004;2023-05-10T14:26:07;16.73;;;9.57;;
48667;SDS011;34453;52.198;5.004;2023-05-10T14:28:32;9.52;;;7.60;;
48667;SDS011;34453;52.198;5.004;2023-05-10T14:30:58;14.30;;;8.50;;
48667;SDS011;34453;52.198;5.004;2023-05-10T14:33:24;12.85;;;8.02;;
48667;SDS011;34453;52.198;5.004;2023-05-10T14:35:50;16.27;;;8.23;;
48667;SDS011;34453;52.198;5.004;2023-05-10T14:38:16;9.88;;;7.75;;
48667;SDS011;34453;52.198;5.004;2023-05-10T14:40:42;17.25;;;8.57;;
48667;SDS011;34453;52.198;5.004;2023-05-10T14:43:08;15.15;;;7.70;;
48667;SDS011;34453;52.198;5.004;2023-05-10T14:45:34;13.40;;;7.20;;
48667;SDS011;34453;52.198;5.004;2023-05-10T14:48:00;8.27;;;5.40;;
48667;SDS011;34453;52.198;5.004;2023-05-10T14:50:26;7.40;;;5.78;;
48667;SDS011;34453;52.198;5.004;2023-05-10T14:52:51;6.60;;;4.82;;
48667;SDS011;34453;52.198;5.004;2023-05-10T14:55:17;5.32;;;2.97;;
48667;SDS011;34453;52.198;5.004;2023-05-10T14:57:42;4.43;;;4.00;;
48667;SDS011;34453;52.198;5.004;2023-05-10T15:00:09;5.88;;;4.78;;
48667;SDS011;34453;52.198;5.004;2023-05-10T15:02:40;7.40;;;5.05;;
48667;SDS011;34453;52.198;5.004;2023-05-10T15:05:06;5.70;;;4.57;;
48667;SDS011;34453;52.198;5.004;2023-05-10T15:07:32;5.38;;;4.88;;
48667;SDS011;34453;52.198;5.004;2023-05-10T15:09:58;6.30;;;5.80;;
48667;SDS011;34453;52.198;5.004;2023-05-10T15:12:23;6.93;;;5.93;;
48667;SDS011;34453;52.198;5.004;2023-05-10T15:14:49;6.35;;;5.85;;
48667;SDS011;34453;52.198;5.004;2023-05-10T15:17:15;8.20;;;6.70;;